sensor_id;sensor_type;location;lat;lon;timestamp;pressure;altitude;pressure_sealevel;temperature;humidity
63006;BME280;53704;52.532;6.426;2023-01-27T00:01:50;102571.03;;;2.30;100.00
63006;BME280;53704;52.532;6.426;2023-01-27T00:04:16;102564.88;;;2.30;100.00
63006;BME280;53704;52.532;6.426;2023-01-27T00:06:41;102567.38;;;2.33;100.00
63006;BME280;53704;52.532;6.426;2023-01-27T00:09:07;102563.72;;;2.35;100.00
63006;BME280;53704;52.532;6.426;2023-01-27T00:11:32;102562.28;;;2.28;100.00
63006;BME280;53704;52.532;6.426;2023-01-27T00:14:16;102562.84;;;2.35;100.00
63006;BME280;53704;52.532;6.426;2023-01-27T00:16:41;102564.88;;;2.30;100.00
63006;BME280;53704;52.532;6.426;2023-01-27T00:19:07;102573.63;;;2.32;100.00
63006;BME280;53704;52.532;6.426;2023-01-27T00:21:32;102574.72;;;2.28;100.00
63006;BME280;53704;52.532;6.426;2023-01-27T00:24:16;102565.72;;;2.30;100.00
63006;BME280;53704;52.532;6.426;2023-01-27T00:27:00;102573.94;;;2.24;100.00
63006;BME280;53704;52.532;6.426;2023-01-27T00:29:25;102570.38;;;2.46;100.00
63006;BME280;53704;52.532;6.426;2023-01-27T00:31:51;102573.41;;;2.37;100.00
63006;BME280;53704;52.532;6.426;2023-01-27T00:34:34;102570.69;;;2.38;100.00
63006;BME280;53704;52.532;6.426;2023-01-27T00:37:00;102581.59;;;2.32;100.00
63006;BME280;53704;52.532;6.426;2023-01-27T00:39:26;102573.41;;;2.37;100.00
63006;BME280;53704;52.532;6.426;2023-01-27T00:41:51;102576.09;;;2.37;100.00
63006;BME280;53704;52.532;6.426;2023-01-27T00:44:16;102584.25;;;2.32;100.00
63006;BME280;53704;52.532;6.426;2023-01-27T00:46:42;102580.88;;;2.28;100.00
63006;BME280;53704;52.532;6.426;2023-01-27T00:49:08;102581.78;;;2.27;100.00
63006;BME280;53704;52.532;6.426;2023-01-27T00:51:34;102592.16;;;2.33;100.00
63006;BME280;53704;52.532;6.426;2023-01-27T00:54:01;102590.97;;;2.20;100.00
63006;BME280;53704;52.532;6.426;2023-01-27T00:56:27;102592.81;;;2.18;100.00
63006;BME280;53704;52.532;6.426;2023-01-27T00:58:53;102601.34;;;2.26;100.00
63006;BME280;53704;52.532;6.426;2023-01-27T01:01:18;102603.31;;;2.21;100.00
63006;BME280;53704;52.532;6.426;2023-01-27T01:03:44;102608.56;;;2.23;100.00
63006;BME280;53704;52.532;6.426;2023-01-27T01:06:11;102604.94;;;2.25;100.00
63006;BME280;53704;52.532;6.426;2023-01-27T01:08:37;102603.13;;;2.26;100.00
63006;BME280;53704;52.532;6.426;2023-01-27T01:11:04;102604.19;;;2.22;100.00
63006;BME280;53704;52.532;6.426;2023-01-27T01:13:30;102607.38;;;2.30;100.00
63006;BME280;53704;52.532;6.426;2023-01-27T01:15:56;102610.38;;;2.22;100.00
63006;BME280;53704;52.532;6.426;2023-01-27T01:18:22;102614.44;;;2.31;100.00
63006;BME280;53704;52.532;6.426;2023-01-27T01:20:48;102615.63;;;2.24;100.00
63006;BME280;53704;52.532;6.426;2023-01-27T01:23:14;102612.97;;;2.24;100.00
63006;BME280;53704;52.532;6.426;2023-01-27T01:25:40;102625.47;;;2.22;100.00
63006;BME280;53704;52.532;6.426;2023-01-27T01:28:07;102615.50;;;2.27;100.00
63006;BME280;53704;52.532;6.426;2023-01-27T01:30:34;102618.28;;;2.24;100.00
63006;BME280;53704;52.532;6.426;2023-01-27T01:33:00;102622.75;;;2.23;100.00
63006;BME280;53704;52.532;6.426;2023-01-27T01:35:26;102619.38;;;2.18;100.00
63006;BME280;53704;52.532;6.426;2023-01-27T01:37:52;102624.75;;;2.16;100.00
63006;BME280;53704;52.532;6.426;2023-01-27T01:40:18;102630.91;;;2.19;100.00
63006;BME280;53704;52.532;6.426;2023-01-27T01:42:55;102619.25;;;2.21;100.00
63006;BME280;53704;52.532;6.426;2023-01-27T01:48:02;102621.84;;;2.23;100.00
63006;BME280;53704;52.532;6.426;2023-01-27T01:50:29;102624.00;;;2.35;100.00
63006;BME280;53704;52.532;6.426;2023-01-27T01:52:56;102621.59;;;2.29;100.00
63006;BME280;53704;52.532;6.426;2023-01-27T01:55:22;102626.19;;;2.25;100.00
63006;BME280;53704;52.532;6.426;2023-01-27T01:57:48;102629.63;;;2.27;100.00
63006;BME280;53704;52.532;6.426;2023-01-27T02:00:14;102634.34;;;2.21;100.00
63006;BME280;53704;52.532;6.426;2023-01-27T02:02:40;102638.69;;;2.23;100.00
63006;BME280;53704;52.532;6.426;2023-01-27T02:05:13;102633.38;;;2.23;100.00
63006;BME280;53704;52.532;6.426;2023-01-27T02:10:09;102630.53;;;2.28;100.00
63006;BME280;53704;52.532;6.426;2023-01-27T02:12:36;102635.53;;;2.34;100.00
63006;BME280;53704;52.532;6.426;2023-01-27T02:15:03;102626.19;;;2.25;100.00
63006;BME280;53704;52.532;6.426;2023-01-27T02:17:29;102630.38;;;2.31;100.00
63006;BME280;53704;52.532;6.426;2023-01-27T02:20:27;102635.84;;;2.28;100.00
63006;BME280;53704;52.532;6.426;2023-01-27T02:28:06;102629.44;;;2.32;100.00
63006;BME280;53704;52.532;6.426;2023-01-27T02:30:32;102632.56;;;2.42;100.00
63006;BME280;53704;52.532;6.426;2023-01-27T02:32:57;102627.31;;;2.40;100.00
63006;BME280;53704;52.532;6.426;2023-01-27T02:35:35;102638.75;;;2.42;100.00
63006;BME280;53704;52.532;6.426;2023-01-27T02:38:03;102637.81;;;2.43;100.00
63006;BME280;53704;52.532;6.426;2023-01-27T02:40:31;102632.44;;;2.45;100.00
63006;BME280;53704;52.532;6.426;2023-01-27T02:42:57;102631.84;;;2.38;100.00
63006;BME280;53704;52.532;6.426;2023-01-27T02:45:24;102634.44;;;2.40;100.00
63006;BME280;53704;52.532;6.426;2023-01-27T02:47:50;102630.78;;;2.42;100.00
63006;BME280;53704;52.532;6.426;2023-01-27T02:50:16;102641.16;;;2.48;100.00
63006;BME280;53704;52.532;6.426;2023-01-27T02:52:41;102637.81;;;2.43;100.00
63006;BME280;53704;52.532;6.426;2023-01-27T02:55:07;102642.41;;;2.40;100.00
63006;BME280;53704;52.532;6.426;2023-01-27T02:57:33;102632.56;;;2.42;100.00
63006;BME280;53704;52.532;6.426;2023-01-27T02:59:58;102634.88;;;2.49;100.00
63006;BME280;53704;52.532;6.426;2023-01-27T03:02:24;102636.63;;;2.50;100.00
63006;BME280;53704;52.532;6.426;2023-01-27T03:04:55;102636.88;;;2.44;100.00
63006;BME280;53704;52.532;6.426;2023-01-27T03:07:21;102632.34;;;2.46;100.00
63006;BME280;53704;52.532;6.426;2023-01-27T03:09:46;102645.31;;;2.54;100.00
63006;BME280;53704;52.532;6.426;2023-01-27T03:12:12;102642.94;;;2.48;100.00
63006;BME280;53704;52.532;6.426;2023-01-27T03:14:47;102643.69;;;2.51;100.00
63006;BME280;53704;52.532;6.426;2023-01-27T03:17:32;102646.53;;;2.47;100.00
63006;BME280;53704;52.532;6.426;2023-01-27T03:20:17;102643.75;;;2.50;100.00
63006;BME280;53704;52.532;6.426;2023-01-27T03:22:42;102649.91;;;2.50;100.00
63006;BME280;53704;52.532;6.426;2023-01-27T03:25:08;102644.94;;;2.43;100.00
63006;BME280;53704;52.532;6.426;2023-01-27T03:27:34;102645.59;;;2.48;100.00
63006;BME280;53704;52.532;6.426;2023-01-27T03:29:59;102646.72;;;2.42;100.00
63006;BME280;53704;52.532;6.426;2023-01-27T03:32:27;102643.94;;;2.45;100.00
63006;BME280;53704;52.532;6.426;2023-01-27T03:34:54;102647.53;;;2.44;100.00
63006;BME280;53704;52.532;6.426;2023-01-27T03:37:25;102646.34;;;2.51;100.00
63006;BME280;53704;52.532;6.426;2023-01-27T03:40:10;102656.16;;;2.49;100.00
63006;BME280;53704;52.532;6.426;2023-01-27T03:42:54;102652.44;;;2.53;100.00
63006;BME280;53704;52.532;6.426;2023-01-27T03:45:38;102657.09;;;2.48;100.00
63006;BME280;53704;52.532;6.426;2023-01-27T03:48:23;102658.03;;;2.47;100.00
63006;BME280;53704;52.532;6.426;2023-01-27T03:50:48;102661.47;;;2.49;100.00
63006;BME280;53704;52.532;6.426;2023-01-27T03:53:20;102666.53;;;2.56;100.00
63006;BME280;53704;52.532;6.426;2023-01-27T03:55:46;102667.69;;;2.50;100.00
63006;BME280;53704;52.532;6.426;2023-01-27T03:58:33;102666.13;;;2.44;100.00
63006;BME280;53704;52.532;6.426;2023-01-27T04:03:31;102667.81;;;2.47;100.00
63006;BME280;53704;52.532;6.426;2023-01-27T04:06:18;102678.25;;;2.51;100.00
63006;BME280;53704;52.532;6.426;2023-01-27T04:09:04;102680.03;;;2.51;100.00
63006;BME280;53704;52.532;6.426;2023-01-27T04:11:29;102676.56;;;2.49;100.00
63006;BME280;53704;52.532;6.426;2023-01-27T04:14:14;102670.16;;;2.53;100.00
63006;BME280;53704;52.532;6.426;2023-01-27T04:16:39;102662.13;;;2.54;100.00
63006;BME280;53704;52.532;6.426;2023-01-27T04:19:06;102669.13;;;2.57;100.00
63006;BME280;53704;52.532;6.426;2023-01-27T04:21:32;102677.75;;;2.62;100.00
63006;BME280;53704;52.532;6.426;2023-01-27T04:23:58;102669.31;;;2.52;100.00
63006;BME280;53704;52.532;6.426;2023-01-27T04:26:24;102665.81;;;2.52;100.00
63006;BME280;53704;52.532;6.426;2023-01-27T04:28:50;102668.25;;;2.57;100.00
63006;BME280;53704;52.532;6.426;2023-01-27T04:31:15;102663.94;;;2.54;100.00
63006;BME280;53704;52.532;6.426;2023-01-27T04:33:42;102663.94;;;2.54;100.00
63006;BME280;53704;52.532;6.426;2023-01-27T04:36:12;102666.53;;;2.56;100.00
63006;BME280;53704;52.532;6.426;2023-01-27T04:38:38;102672.56;;;2.59;100.00
63006;BME280;53704;52.532;6.426;2023-01-27T04:41:04;102664.00;;;2.52;100.00
63006;BME280;53704;52.532;6.426;2023-01-27T04:43:29;102677.22;;;2.54;100.00
63006;BME280;53704;52.532;6.426;2023-01-27T04:45:55;102667.44;;;2.54;100.00
63006;BME280;53704;52.532;6.426;2023-01-27T04:48:20;102667.38;;;2.56;100.00
63006;BME280;53704;52.532;6.426;2023-01-27T04:50:46;102666.25;;;2.62;100.00
63006;BME280;53704;52.532;6.426;2023-01-27T04:53:11;102666.41;;;2.59;100.00
63006;BME280;53704;52.532;6.426;2023-01-27T04:55:37;102668.13;;;2.60;100.00
63006;BME280;53704;52.532;6.426;2023-01-27T04:58:03;102668.13;;;2.60;100.00
63006;BME280;53704;52.532;6.426;2023-01-27T05:00:29;102674.38;;;2.59;100.00
63006;BME280;53704;52.532;6.426;2023-01-27T05:02:54;102674.56;;;2.54;100.00
63006;BME280;53704;52.532;6.426;2023-01-27T05:05:20;102670.94;;;2.57;100.00
63006;BME280;53704;52.532;6.426;2023-01-27T05:07:45;102676.13;;;2.60;100.00
63006;BME280;53704;52.532;6.426;2023-01-27T05:10:11;102675.41;;;2.54;100.00
63006;BME280;53704;52.532;6.426;2023-01-27T05:12:36;102668.19;;;2.58;100.00
63006;BME280;53704;52.532;6.426;2023-01-27T05:15:02;102669.25;;;2.54;100.00
63006;BME280;53704;52.532;6.426;2023-01-27T05:17:33;102677.28;;;2.52;100.00
63006;BME280;53704;52.532;6.426;2023-01-27T05:19:59;102678.97;;;2.55;100.00
63006;BME280;53704;52.532;6.426;2023-01-27T05:22:24;102670.03;;;2.56;100.00
63006;BME280;53704;52.532;6.426;2023-01-27T05:24:49;102680.75;;;2.54;100.00
63006;BME280;53704;52.532;6.426;2023-01-27T05:27:15;102672.63;;;2.58;100.00
63006;BME280;53704;52.532;6.426;2023-01-27T05:29:42;102671.25;;;2.49;100.00
63006;BME280;53704;52.532;6.426;2023-01-27T05:32:07;102681.03;;;2.48;100.00
63006;BME280;53704;52.532;6.426;2023-01-27T05:34:32;102684.47;;;2.50;100.00
63006;BME280;53704;52.532;6.426;2023-01-27T05:36:58;102690.78;;;2.48;100.00
63006;BME280;53704;52.532;6.426;2023-01-27T05:39:42;102695.38;;;2.44;100.00
63006;BME280;53704;52.532;6.426;2023-01-27T05:42:07;102699.84;;;2.44;100.00
63006;BME280;53704;52.532;6.426;2023-01-27T05:44:33;102712.31;;;2.42;100.00
63006;BME280;53704;52.532;6.426;2023-01-27T05:46:58;102709.59;;;2.43;100.00
63006;BME280;53704;52.532;6.426;2023-01-27T05:49:24;102716.56;;;2.46;100.00
63006;BME280;53704;52.532;6.426;2023-01-27T05:51:49;102719.44;;;2.41;100.00
63006;BME280;53704;52.532;6.426;2023-01-27T05:54:14;102718.81;;;2.34;100.00
63006;BME280;53704;52.532;6.426;2023-01-27T05:56:40;102724.06;;;2.36;100.00
63006;BME280;53704;52.532;6.426;2023-01-27T05:59:06;102725.78;;;2.37;100.00
63006;BME280;53704;52.532;6.426;2023-01-27T06:01:33;102724.13;;;2.34;100.00
63006;BME280;53704;52.532;6.426;2023-01-27T06:03:59;102726.81;;;2.34;100.00
63006;BME280;53704;52.532;6.426;2023-01-27T06:06:27;102733.81;;;2.35;100.00
63006;BME280;53704;52.532;6.426;2023-01-27T06:08:53;102730.44;;;2.32;100.00
63006;BME280;53704;52.532;6.426;2023-01-27T06:11:19;102730.56;;;2.29;100.00
63006;BME280;53704;52.532;6.426;2023-01-27T06:13:46;102726.97;;;2.30;100.00
63006;BME280;53704;52.532;6.426;2023-01-27T06:16:14;102729.72;;;2.28;100.00
63006;BME280;53704;52.532;6.426;2023-01-27T06:18:42;102728.91;;;2.26;100.00
63006;BME280;53704;52.532;6.426;2023-01-27T06:21:10;102736.00;;;2.26;100.00
63006;BME280;53704;52.532;6.426;2023-01-27T06:23:37;102731.69;;;2.23;100.00
63006;BME280;53704;52.532;6.426;2023-01-27T06:26:10;102738.91;;;2.20;100.00
63006;BME280;53704;52.532;6.426;2023-01-27T06:28:37;102733.53;;;2.21;100.00
63006;BME280;53704;52.532;6.426;2023-01-27T06:31:11;102736.19;;;2.21;100.00
63006;BME280;53704;52.532;6.426;2023-01-27T06:33:37;102736.31;;;2.18;100.00
63006;BME280;53704;52.532;6.426;2023-01-27T06:36:05;102735.34;;;2.21;100.00
63006;BME280;53704;52.532;6.426;2023-01-27T06:38:32;102732.19;;;2.11;100.00
63006;BME280;53704;52.532;6.426;2023-01-27T06:40:58;102742.16;;;2.06;100.00
63006;BME280;53704;52.532;6.426;2023-01-27T06:43:24;102742.09;;;2.07;100.00
63006;BME280;53704;52.532;6.426;2023-01-27T06:45:50;102743.91;;;2.05;100.00
63006;BME280;53704;52.532;6.426;2023-01-27T06:48:16;102745.47;;;2.11;100.00
63006;BME280;53704;52.532;6.426;2023-01-27T06:50:41;102750.28;;;2.01;100.00
63006;BME280;53704;52.532;6.426;2023-01-27T06:53:07;102758.19;;;2.03;100.00
63006;BME280;53704;52.532;6.426;2023-01-27T06:55:34;102756.53;;;2.00;100.00
63006;BME280;53704;52.532;6.426;2023-01-27T06:58:02;102753.00;;;1.99;100.00
63006;BME280;53704;52.532;6.426;2023-01-27T07:00:28;102754.34;;;1.88;100.00
63006;BME280;53704;52.532;6.426;2023-01-27T07:02:55;102760.78;;;1.82;100.00
63006;BME280;53704;52.532;6.426;2023-01-27T07:05:20;102755.59;;;1.79;100.00
63006;BME280;53704;52.532;6.426;2023-01-27T07:07:46;102762.22;;;1.67;100.00
63006;BME280;53704;52.532;6.426;2023-01-27T07:10:11;102770.41;;;1.61;100.00
63006;BME280;53704;52.532;6.426;2023-01-27T07:12:37;102769.25;;;1.68;100.00
63006;BME280;53704;52.532;6.426;2023-01-27T07:15:05;102772.94;;;1.64;100.00
63006;BME280;53704;52.532;6.426;2023-01-27T07:17:32;102762.44;;;1.61;100.00
63006;BME280;53704;52.532;6.426;2023-01-27T07:19:57;102766.03;;;1.60;100.00
63006;BME280;53704;52.532;6.426;2023-01-27T07:22:23;102773.13;;;1.59;100.00
63006;BME280;53704;52.532;6.426;2023-01-27T07:24:48;102775.88;;;1.56;100.00
63006;BME280;53704;52.532;6.426;2023-01-27T07:27:14;102779.59;;;1.52;100.00
63006;BME280;53704;52.532;6.426;2023-01-27T07:29:39;102789.38;;;1.50;100.00
63006;BME280;53704;52.532;6.426;2023-01-27T07:32:06;102797.41;;;1.49;100.00
63006;BME280;53704;52.532;6.426;2023-01-27T07:34:31;102803.53;;;1.51;100.00
63006;BME280;53704;52.532;6.426;2023-01-27T07:36:57;102805.38;;;1.49;100.00
63006;BME280;53704;52.532;6.426;2023-01-27T07:39:22;102799.31;;;1.45;100.00
63006;BME280;53704;52.532;6.426;2023-01-27T07:41:48;102805.69;;;1.41;100.00
63006;BME280;53704;52.532;6.426;2023-01-27T07:44:13;102806.47;;;1.43;100.00
63006;BME280;53704;52.532;6.426;2023-01-27T07:46:39;102799.50;;;1.64;100.00
63006;BME280;53704;52.532;6.426;2023-01-27T07:49:04;102797.78;;;1.63;100.00
63006;BME280;53704;52.532;6.426;2023-01-27T07:51:30;102807.13;;;1.50;100.00
63006;BME280;53704;52.532;6.426;2023-01-27T07:53:55;102801.69;;;1.53;100.00
63006;BME280;53704;52.532;6.426;2023-01-27T07:56:21;102810.81;;;1.46;100.00
63006;BME280;53704;52.532;6.426;2023-01-27T07:58:46;102812.38;;;1.51;100.00
63006;BME280;53704;52.532;6.426;2023-01-27T08:01:12;102811.50;;;1.51;100.00
63006;BME280;53704;52.532;6.426;2023-01-27T08:03:38;102809.31;;;1.62;100.00
63006;BME280;53704;52.532;6.426;2023-01-27T08:06:05;102815.72;;;1.56;100.00
63006;BME280;53704;52.532;6.426;2023-01-27T08:08:31;102815.53;;;1.61;100.00
63006;BME280;53704;52.532;6.426;2023-01-27T08:11:00;102813.59;;;1.66;100.00
63006;BME280;53704;52.532;6.426;2023-01-27T08:13:26;102822.44;;;1.67;100.00
63006;BME280;53704;52.532;6.426;2023-01-27T08:15:58;102829.16;;;1.75;100.00
63006;BME280;53704;52.532;6.426;2023-01-27T08:18:25;102827.22;;;1.80;100.00
63006;BME280;53704;52.532;6.426;2023-01-27T08:20:52;102820.97;;;1.81;100.00
63006;BME280;53704;52.532;6.426;2023-01-27T08:23:19;102821.69;;;1.87;100.00
63006;BME280;53704;52.532;6.426;2023-01-27T08:25:53;102829.44;;;1.91;100.00
63006;BME280;53704;52.532;6.426;2023-01-27T08:28:19;102830.34;;;1.92;100.00
63006;BME280;53704;52.532;6.426;2023-01-27T08:30:46;102823.16;;;1.94;100.00
63006;BME280;53704;52.532;6.426;2023-01-27T08:33:12;102826.56;;;1.97;100.00
63006;BME280;53704;52.532;6.426;2023-01-27T08:35:38;102833.44;;;2.03;100.00
63006;BME280;53704;52.532;6.426;2023-01-27T08:38:07;102833.78;;;1.94;100.00
63006;BME280;53704;52.532;6.426;2023-01-27T08:40:33;102842.22;;;2.05;100.00
63006;BME280;53704;52.532;6.426;2023-01-27T08:42:58;102838.53;;;2.09;100.00
63006;BME280;53704;52.532;6.426;2023-01-27T08:45:26;102843.22;;;2.03;100.00
63006;BME280;53704;52.532;6.426;2023-01-27T08:47:51;102842.28;;;2.04;100.00
63006;BME280;53704;52.532;6.426;2023-01-27T08:50:17;102850.34;;;2.24;100.00
63006;BME280;53704;52.532;6.426;2023-01-27T08:52:42;102847.84;;;2.20;100.00
63006;BME280;53704;52.532;6.426;2023-01-27T08:55:08;102853.34;;;2.15;100.00
63006;BME280;53704;52.532;6.426;2023-01-27T08:57:33;102855.16;;;2.14;100.00
63006;BME280;53704;52.532;6.426;2023-01-27T08:59:59;102853.06;;;2.23;100.00
63006;BME280;53704;52.532;6.426;2023-01-27T09:02:24;102857.75;;;2.16;100.00
63006;BME280;53704;52.532;6.426;2023-01-27T09:04:51;102857.69;;;2.17;100.00
63006;BME280;53704;52.532;6.426;2023-01-27T09:07:17;102857.47;;;2.24;100.00
63006;BME280;53704;52.532;6.426;2023-01-27T09:09:46;102868.53;;;2.35;100.00
63006;BME280;53704;52.532;6.426;2023-01-27T09:12:12;102863.78;;;2.43;100.00
63006;BME280;53704;52.532;6.426;2023-01-27T09:14:37;102857.28;;;2.28;100.00
63006;BME280;53704;52.532;6.426;2023-01-27T09:17:04;102863.56;;;2.26;100.00
63006;BME280;53704;52.532;6.426;2023-01-27T09:19:29;102859.31;;;2.22;100.00
63006;BME280;53704;52.532;6.426;2023-01-27T09:21:55;102861.97;;;2.22;100.00
63006;BME280;53704;52.532;6.426;2023-01-27T09:24:21;102865.88;;;2.35;100.00
63006;BME280;53704;52.532;6.426;2023-01-27T09:26:46;102870.75;;;2.24;100.00
63006;BME280;53704;52.532;6.426;2023-01-27T09:29:11;102872.50;;;2.25;100.00
63006;BME280;53704;52.532;6.426;2023-01-27T09:31:37;102879.47;;;2.27;100.00
63006;BME280;53704;52.532;6.426;2023-01-27T09:34:02;102867.84;;;2.30;100.00
63006;BME280;53704;52.532;6.426;2023-01-27T09:36:29;102870.75;;;2.24;100.00
63006;BME280;53704;52.532;6.426;2023-01-27T09:39:02;102877.25;;;2.39;100.00
63006;BME280;53704;52.532;6.426;2023-01-27T10:17:19;102891.13;;;2.91;100.00
63006;BME280;53704;52.532;6.426;2023-01-27T10:27:58;102880.72;;;3.07;100.00
63006;BME280;53704;52.532;6.426;2023-01-27T10:30:37;102882.25;;;2.90;100.00
63006;BME280;53704;52.532;6.426;2023-01-27T10:33:16;102885.59;;;2.96;100.00
63006;BME280;53704;52.532;6.426;2023-01-27T10:35:50;102891.34;;;3.07;100.00
63006;BME280;53704;52.532;6.426;2023-01-27T10:49:15;102889.38;;;2.90;100.00
63006;BME280;53704;52.532;6.426;2023-01-27T10:51:59;102907.22;;;2.88;100.00
63006;BME280;53704;52.532;6.426;2023-01-27T10:54:36;102899.91;;;2.93;100.00
63006;BME280;53704;52.532;6.426;2023-01-27T11:05:07;102898.28;;;2.89;100.00
63006;BME280;53704;52.532;6.426;2023-01-27T11:07:47;102896.31;;;2.94;100.00
63006;BME280;53704;52.532;6.426;2023-01-27T11:10:18;102886.41;;;2.98;100.00
63006;BME280;53704;52.532;6.426;2023-01-27T11:12:50;102894.00;;;3.07;100.00
63006;BME280;53704;52.532;6.426;2023-01-27T11:15:31;102889.59;;;3.06;100.00
63006;BME280;53704;52.532;6.426;2023-01-27T11:18:19;102881.88;;;3.00;100.00
63006;BME280;53704;52.532;6.426;2023-01-27T11:20:52;102866.91;;;2.97;100.00
63006;BME280;53704;52.532;6.426;2023-01-27T11:23:21;102866.09;;;2.95;100.00
63006;BME280;53704;52.532;6.426;2023-01-27T11:26:05;102861.50;;;2.99;100.00
63006;BME280;53704;52.532;6.426;2023-01-27T11:31:29;102865.38;;;2.92;100.00
63006;BME280;53704;52.532;6.426;2023-01-27T11:34:23;102869.19;;;3.06;100.00
63006;BME280;53704;52.532;6.426;2023-01-27T11:36:50;102860.66;;;2.98;100.00
63006;BME280;53704;52.532;6.426;2023-01-27T11:39:16;102863.34;;;3.19;100.00
63006;BME280;53704;52.532;6.426;2023-01-27T11:41:49;102860.75;;;3.17;100.00
63006;BME280;53704;52.532;6.426;2023-01-27T11:44:34;102867.75;;;3.20;100.00
63006;BME280;53704;52.532;6.426;2023-01-27T11:47:01;102857.22;;;3.37;100.00
63006;BME280;53704;52.532;6.426;2023-01-27T11:49:38;102859.00;;;3.16;100.00
63006;BME280;53704;52.532;6.426;2023-01-27T11:52:14;102862.75;;;3.12;100.00
63006;BME280;53704;52.532;6.426;2023-01-27T11:55:04;102861.53;;;3.19;100.00
63006;BME280;53704;52.532;6.426;2023-01-27T11:57:31;102860.75;;;3.38;100.00
63006;BME280;53704;52.532;6.426;2023-01-27T12:00:25;102854.09;;;3.28;100.00
63006;BME280;53704;52.532;6.426;2023-01-27T12:05:46;102855.41;;;3.17;100.00
63006;BME280;53704;52.532;6.426;2023-01-27T12:11:21;102847.97;;;3.25;100.00
63006;BME280;53704;52.532;6.426;2023-01-27T12:14:01;102851.25;;;3.12;100.00
63006;BME280;53704;52.532;6.426;2023-01-27T12:19:26;102841.19;;;3.18;100.00
63006;BME280;53704;52.532;6.426;2023-01-27T12:22:00;102830.88;;;3.31;100.00
63006;BME280;53704;52.532;6.426;2023-01-27T12:24:28;102843.66;;;3.23;100.00
63006;BME280;53704;52.532;6.426;2023-01-27T12:26:56;102831.66;;;3.13;100.00
63006;BME280;53704;52.532;6.426;2023-01-27T12:29:53;102827.63;;;3.24;100.00
63006;BME280;53704;52.532;6.426;2023-01-27T12:32:40;102836.91;;;3.35;100.00
63006;BME280;53704;52.532;6.426;2023-01-27T12:35:28;102845.09;;;3.30;100.00
63006;BME280;53704;52.532;6.426;2023-01-27T12:37:56;102829.38;;;3.24;100.00
63006;BME280;53704;52.532;6.426;2023-01-27T12:40:24;102827.75;;;3.42;100.00
63006;BME280;53704;52.532;6.426;2023-01-27T12:43:11;102823.66;;;3.33;100.00
63006;BME280;53704;52.532;6.426;2023-01-27T12:45:37;102834.59;;;3.06;100.00
63006;BME280;53704;52.532;6.426;2023-01-27T12:53:20;102828.06;;;3.34;100.00
63006;BME280;53704;52.532;6.426;2023-01-27T12:59:17;102828.53;;;3.23;100.00
63006;BME280;53704;52.532;6.426;2023-01-27T13:01:33;102826.34;;;3.13;100.00
63006;BME280;53704;52.532;6.426;2023-01-27T13:04:13;102832.31;;;3.18;100.00
63006;BME280;53704;52.532;6.426;2023-01-27T13:06:43;102835.22;;;3.13;100.00
63006;BME280;53704;52.532;6.426;2023-01-27T13:09:33;102824.34;;;3.18;100.00
63006;BME280;53704;52.532;6.426;2023-01-27T13:12:21;102825.47;;;3.12;100.00
63006;BME280;53704;52.532;6.426;2023-01-27T13:14:53;102834.97;;;3.18;100.00
63006;BME280;53704;52.532;6.426;2023-01-27T13:20:06;102825.47;;;3.12;100.00
63006;BME280;53704;52.532;6.426;2023-01-27T13:22:40;102830.81;;;3.12;100.00
63006;BME280;53704;52.532;6.426;2023-01-27T13:25:15;102828.41;;;3.06;100.00
63006;BME280;53704;52.532;6.426;2023-01-27T13:27:41;102822.94;;;3.30;100.00
63006;BME280;53704;52.532;6.426;2023-01-27T13:32:38;102830.22;;;3.05;100.00
63006;BME280;53704;52.532;6.426;2023-01-27T13:38:23;102829.72;;;3.16;100.00
63006;BME280;53704;52.532;6.426;2023-01-27T13:40:53;102821.41;;;3.24;100.00
63006;BME280;53704;52.532;6.426;2023-01-27T13:43:39;102836.84;;;3.16;100.00
63006;BME280;53704;52.532;6.426;2023-01-27T13:48:40;102837.50;;;3.00;100.00
63006;BME280;53704;52.532;6.426;2023-01-27T13:51:10;102841.13;;;3.20;100.00
63006;BME280;53704;52.532;6.426;2023-01-27T13:53:36;102837.31;;;3.05;100.00
63006;BME280;53704;52.532;6.426;2023-01-27T13:56:07;102852.34;;;3.06;100.00
63006;BME280;53704;52.532;6.426;2023-01-27T14:04:37;102849.31;;;3.15;100.00
63006;BME280;53704;52.532;6.426;2023-01-27T14:07:28;102845.97;;;3.10;100.00
63006;BME280;53704;52.532;6.426;2023-01-27T14:10:15;102843.84;;;2.98;100.00
63006;BME280;53704;52.532;6.426;2023-01-27T14:13:02;102846.88;;;2.88;100.00
63006;BME280;53704;52.532;6.426;2023-01-27T14:25:39;102862.72;;;2.92;100.00
63006;BME280;53704;52.532;6.426;2023-01-27T14:28:42;102851.22;;;2.91;100.00
63006;BME280;53704;52.532;6.426;2023-01-27T14:31:44;102849.34;;;2.93;100.00
63006;BME280;53704;52.532;6.426;2023-01-27T14:34:27;102853.00;;;2.90;100.00
63006;BME280;53704;52.532;6.426;2023-01-27T14:37:00;102856.97;;;2.80;100.00
63006;BME280;53704;52.532;6.426;2023-01-27T14:42:27;102862.44;;;2.77;100.00
63006;BME280;53704;52.532;6.426;2023-01-27T14:45:20;102862.78;;;2.90;100.00
63006;BME280;53704;52.532;6.426;2023-01-27T14:50:47;102868.41;;;2.82;100.00
63006;BME280;53704;52.532;6.426;2023-01-27T14:56:33;102875.06;;;2.72;100.00
63006;BME280;53704;52.532;6.426;2023-01-27T15:01:53;102880.09;;;2.78;100.00
63006;BME280;53704;52.532;6.426;2023-01-27T15:17:55;102884.25;;;2.85;100.00
63006;BME280;53704;52.532;6.426;2023-01-27T15:20:34;102879.31;;;2.76;100.00
63006;BME280;53704;52.532;6.426;2023-01-27T15:25:53;102878.44;;;2.76;100.00
63006;BME280;53704;52.532;6.426;2023-01-27T15:28:24;102887.28;;;2.76;100.00
63006;BME280;53704;52.532;6.426;2023-01-27T15:41:52;102889.09;;;2.76;100.00
63006;BME280;53704;52.532;6.426;2023-01-27T15:45:01;102890.84;;;2.53;100.00
63006;BME280;53704;52.532;6.426;2023-01-27T15:47:31;102896.69;;;2.63;100.00